CheckWX is a tool to help pilots better visualize weather data.  It is not intended as a substitute for an official pre-flight weather briefing.

00:38:37 UTC

CYSN METAR
St Catharines / Niagara District Airport
St Catharines, Canada
Current

39 mins ago

CYSN 270000Z 15002KT 15SM SKC 02/M13 A3040 RMK SLP300
Observed
Mar-27 @ 00:00 UTC
Wind
  • 150° at 2 KTS
Visibility
15 SM
Flight Rules
VFR
Cloud Levels
  • Clear skies
Temperature
C / 36°F
Dewpoint
-13°C / 9°F
Humidity
32%
Altimeter
30.4" Hg
Pressure
1030 hPa
Previous

2 hours ago

CYSN 262300Z 36003KT 15SM SKC 03/M15 A3040 RMK SLP299
Observed
Mar-26 @ 23:00 UTC
Wind
  • 360° at 3 KTS
Visibility
15 SM
Flight Rules
VFR
Cloud Levels
  • Clear skies
Temperature
C / 37°F
Dewpoint
-15°C / 5°F
Humidity
26%
Altimeter
30.4" Hg
Pressure
1029.9 hPa
Previous

3 hours ago

CYSN 262200Z 01004KT 240V030 15SM SKC 04/M15 A3041 RMK SLP303
Observed
Mar-26 @ 22:00 UTC
Wind
  • 010° at 4 KTS
Visibility
15 SM
Flight Rules
VFR
Cloud Levels
  • Clear skies
Temperature
C / 39°F
Dewpoint
-15°C / 5°F
Humidity
24%
Altimeter
30.41" Hg
Pressure
1030.3 hPa